Time;durP1;ratioP1;P1;durP2;ratioP2;P2;SDS_P1;SDS_P2;PMS_P1;PMS_P2;Temp;Humidity;BMP_temperature;BMP_pressure;BME280_temperature;BME280_humidity;BME280_pressure;Samples;Min_cycle;Max_cycle;Signal;HPM_P1;HPM_P2
2022/12/01 00:00:44;;;;;;;1999.90;999.90;;;11.00;99.90;;;;;;5095921;28;20110;-77
2022/12/01 00:03:10;;;;;;;1999.90;999.90;;;12.20;99.90;;;;;;5114980;28;20051;-77
2022/12/01 00:05:35;;;;;;;1999.90;999.90;;;12.30;99.90;;;;;;5096411;28;20045;-77
2022/12/01 00:08:03;;;;;;;1999.90;999.90;;;12.30;99.90;;;;;;5114526;28;20039;-78
2022/12/01 00:10:29;;;;;;;;;;;12.50;99.90;;;;;;5114942;28;20074;-78
2022/12/01 00:12:57;;;;;;;1999.90;999.90;;;12.20;99.90;;;;;;5096731;28;19915;-77
2022/12/01 00:15:33;;;;;;;1999.90;999.90;;;12.10;99.90;;;;;;5114260;28;20082;-77
2022/12/01 00:17:59;;;;;;;1999.90;999.90;;;12.10;99.90;;;;;;5114402;28;20089;-78
2022/12/01 00:20:25;;;;;;;1999.90;999.90;;;12.30;99.90;;;;;;5113936;28;20368;-77
2022/12/01 00:22:51;;;;;;;1564.97;439.63;;;12.10;99.90;;;;;;5114091;28;20109;-78
2022/12/01 00:25:18;;;;;;;1999.90;374.80;;;12.20;99.90;;;;;;5095800;28;20055;-78
2022/12/01 00:27:48;;;;;;;1999.90;999.90;;;13.10;99.90;;;;;;5095894;28;20040;-77
2022/12/01 00:30:15;;;;;;;1999.90;999.90;;;12.20;99.90;;;;;;5096346;28;20040;-75
2022/12/01 00:32:40;;;;;;;1578.03;258.60;;;12.20;99.90;;;;;;5114582;28;20071;-75
2022/12/01 00:35:06;;;;;;;1999.90;716.03;;;12.40;99.90;;;;;;5114223;28;20502;-75
2022/12/01 00:37:33;;;;;;;1999.90;722.58;;;12.20;99.90;;;;;;5095654;28;20039;-75
2022/12/01 00:39:59;;;;;;;1999.90;999.90;;;12.20;99.90;;;;;;5114595;28;20079;-76
2022/12/01 00:42:25;;;;;;;1999.90;999.90;;;12.30;99.90;;;;;;5114229;28;20065;-76
2022/12/01 00:44:51;;;;;;;1999.90;723.88;;;12.10;99.90;;;;;;5114237;28;20510;-76
2022/12/01 00:47:17;;;;;;;1632.03;768.60;;;12.30;99.90;;;;;;5095643;28;20361;-76
2022/12/01 00:49:44;;;;;;;1999.90;999.90;;;12.30;99.90;;;;;;5114117;28;20039;-76
2022/12/01 00:52:11;;;;;;;1999.90;999.90;;;12.10;99.90;;;;;;5113815;28;20080;-77
2022/12/01 00:54:36;;;;;;;1999.90;999.90;;;12.30;99.90;;;;;;5113897;28;20089;-76
2022/12/01 00:57:02;;;;;;;1999.90;396.88;;;12.50;99.90;;;;;;5113981;28;20124;-76
2022/12/01 00:59:28;;;;;;;1999.90;999.90;;;12.60;99.90;;;;;;5112502;28;20049;-76
2022/12/01 01:01:54;;;;;;;1999.90;999.90;;;12.30;99.90;;;;;;5113860;28;20036;-76
2022/12/01 01:04:19;;;;;;;1999.90;999.90;;;12.20;99.90;;;;;;5113515;28;20045;-76
2022/12/01 01:06:45;;;;;;;1999.90;999.90;;;12.20;99.90;;;;;;5112432;28;20050;-76
2022/12/01 01:09:12;;;;;;;1999.90;999.90;;;12.10;99.90;;;;;;5095623;28;20051;-79
2022/12/01 01:11:38;;;;;;;1999.90;999.90;;;12.20;99.90;;;;;;5113373;28;20048;-76
2022/12/01 01:14:05;;;;;;;1999.90;999.90;;;12.10;99.90;;;;;;5113422;28;20047;-76
2022/12/01 01:16:30;;;;;;;1999.90;586.80;;;13.50;99.90;;;;;;5113091;28;20043;-76
2022/12/01 01:18:57;;;;;;;726.00;152.48;;;12.10;99.90;;;;;;5111633;28;20130;-76
2022/12/01 01:21:23;;;;;;;1999.90;999.90;;;12.10;99.90;;;;;;5093792;28;20498;-76
2022/12/01 01:23:51;;;;;;;1999.90;999.90;;;12.10;99.90;;;;;;5113299;28;20043;-76
2022/12/01 01:26:22;;;;;;;1999.90;859.00;;;12.20;99.90;;;;;;5112954;28;20035;-76
2022/12/01 01:28:49;;;;;;;1999.90;371.50;;;12.10;99.90;;;;;;5094516;28;20215;-76
2022/12/01 01:31:19;;;;;;;1999.90;999.90;;;12.10;99.90;;;;;;5111846;28;20031;-76
2022/12/01 01:33:45;;;;;;;1999.90;999.90;;;12.10;99.90;;;;;;5111684;28;20050;-76
2022/12/01 01:36:11;;;;;;;1999.90;375.27;;;12.10;99.90;;;;;;5112467;28;20328;-76
2022/12/01 01:38:37;;;;;;;1999.90;999.90;;;12.20;99.90;;;;;;5112016;28;20130;-76
2022/12/01 01:41:04;;;;;;;1999.90;999.90;;;12.10;99.90;;;;;;5113018;28;20127;-76
2022/12/01 01:43:45;;;;;;;1999.90;999.90;;;12.10;99.90;;;;;;5112583;28;20479;-76
2022/12/01 01:46:16;;;;;;;1999.90;999.90;;;12.10;99.90;;;;;;5112927;28;20046;-76
2022/12/01 01:48:54;;;;;;;1999.90;999.90;;;12.10;99.90;;;;;;5112420;28;20031;-76
2022/12/01 01:51:34;;;;;;;1882.88;483.13;;;12.20;99.90;;;;;;5112785;28;20039;-76
2022/12/01 01:54:07;;;;;;;1999.90;999.90;;;12.20;99.90;;;;;;5112497;28;20040;-76
2022/12/01 01:56:35;;;;;;;1999.90;500.83;;;12.00;99.90;;;;;;5093927;28;20077;-76
2022/12/01 01:59:01;;;;;;;;;;;12.40;99.90;;;;;;5094776;28;20456;-76
2022/12/01 02:01:27;;;;;;;1999.90;999.90;;;12.10;99.90;;;;;;5112529;28;19973;-76
2022/12/01 02:03:55;;;;;;;1999.90;999.90;;;13.20;99.90;;;;;;5112242;28;20074;-76
2022/12/01 02:06:23;;;;;;;1999.90;999.90;;;12.20;99.90;;;;;;5112433;28;20039;-76
2022/12/01 02:08:49;;;;;;;1868.80;630.00;;;12.00;99.90;;;;;;5111484;28;20047;-76
2022/12/01 02:11:26;;;;;;;1957.90;815.92;;;12.20;99.90;;;;;;5111401;28;20460;-76
2022/12/01 02:14:23;;;;;;;1999.90;658.03;;;12.00;99.90;;;;;;5111156;28;20047;-76
2022/12/01 02:17:11;;;;;;;1999.90;999.90;;;12.20;99.90;;;;;;5094082;28;20425;-76
2022/12/01 02:20:17;;;;;;;1914.13;296.33;;;12.20;99.90;;;;;;5111702;28;20092;-76
2022/12/01 02:23:20;;;;;;;1999.90;999.90;;;12.10;99.90;;;;;;5081232;28;20055;-79
2022/12/01 02:26:17;;;;;;;1999.90;339.02;;;12.00;99.90;;;;;;5098205;28;20047;-76
2022/12/01 02:28:51;;;;;;;1999.90;999.90;;;12.20;99.90;;;;;;5115159;28;20557;-76
2022/12/01 02:31:23;;;;;;;1999.90;999.90;;;12.20;99.90;;;;;;5098132;28;20239;-77
2022/12/01 02:33:54;;;;;;;1999.90;999.90;;;12.00;99.90;;;;;;5115394;28;20066;-76
2022/12/01 02:36:55;;;;;;;1999.90;579.42;;;12.00;99.90;;;;;;5097856;28;20094;-76
2022/12/01 02:40:01;;;;;;;1999.90;999.90;;;12.10;99.90;;;;;;5113106;28;20051;-76
2022/12/01 02:42:50;;;;;;;1999.90;999.90;;;12.00;99.90;;;;;;5097379;28;20036;-77
2022/12/01 02:45:28;;;;;;;1999.90;999.90;;;12.10;99.90;;;;;;5116042;28;20352;-76
2022/12/01 02:47:58;;;;;;;1974.40;335.13;;;12.10;99.90;;;;;;5097534;28;20032;-76
2022/12/01 02:50:26;;;;;;;1999.90;999.90;;;12.00;99.90;;;;;;5114755;28;20498;-79
2022/12/01 02:52:53;;;;;;;1999.90;999.90;;;12.00;99.90;;;;;;5115385;28;20123;-77
2022/12/01 02:55:19;;;;;;;1999.90;999.90;;;12.00;99.90;;;;;;5116307;28;20518;-77
2022/12/01 02:57:45;;;;;;;1999.90;999.90;;;12.10;99.90;;;;;;5115625;28;20126;-77
2022/12/01 03:00:12;;;;;;;1999.90;999.90;;;12.00;99.90;;;;;;5115088;28;20044;-77
2022/12/01 03:03:01;;;;;;;1999.90;999.90;;;12.10;99.90;;;;;;5115858;28;20050;-77
2022/12/01 03:05:50;;;;;;;1999.90;715.70;;;12.00;99.90;;;;;;5115531;28;20061;-79
2022/12/01 03:08:19;;;;;;;1999.90;999.90;;;12.10;99.90;;;;;;5115098;28;20042;-78
2022/12/01 03:10:54;;;;;;;1999.90;999.90;;;12.00;99.90;;;;;;5097602;28;20166;-77
2022/12/01 03:13:28;;;;;;;1999.90;999.90;;;12.00;99.90;;;;;;5115717;28;20459;-77
2022/12/01 03:16:14;;;;;;;1736.07;284.63;;;12.00;99.90;;;;;;5116335;28;20044;-79
2022/12/01 03:18:52;;;;;;;1999.90;999.90;;;12.10;99.90;;;;;;5114936;28;20039;-78
2022/12/01 03:21:24;;;;;;;1999.90;999.90;;;12.10;99.90;;;;;;5115526;28;20039;-77
2022/12/01 03:23:56;;;;;;;1999.90;999.90;;;12.00;99.90;;;;;;5115068;28;20549;-78
2022/12/01 03:26:24;;;;;;;1999.90;999.90;;;11.90;99.90;;;;;;5097366;28;20044;-78
2022/12/01 03:28:59;;;;;;;;;;;12.10;99.90;;;;;;5096713;28;20047;-78
2022/12/01 03:31:30;;;;;;;1999.90;597.40;;;12.00;99.90;;;;;;5115747;28;19916;-78
2022/12/01 03:34:22;;;;;;;1999.90;999.90;;;12.00;99.90;;;;;;5096964;28;20536;-77
2022/12/01 03:37:03;;;;;;;1919.15;820.17;;;11.90;99.90;;;;;;5115080;28;20043;-81
2022/12/01 03:39:34;;;;;;;1660.43;776.47;;;12.40;99.90;;;;;;5115048;28;20043;-79
2022/12/01 03:42:03;;;;;;;1592.72;768.35;;;12.10;99.90;;;;;;5115454;28;20109;-77
2022/12/01 03:44:38;;;;;;;1999.90;999.90;;;11.90;99.90;;;;;;5114925;28;20043;-78
2022/12/01 03:47:09;;;;;;;1999.90;999.90;;;12.10;99.90;;;;;;5115278;28;20047;-77
2022/12/01 03:49:36;;;;;;;1651.80;447.48;;;12.00;99.90;;;;;;5114853;28;20047;-78
2022/12/01 03:52:08;;;;;;;1999.90;999.90;;;11.90;99.90;;;;;;5115315;28;20525;-78
2022/12/01 03:55:07;;;;;;;1434.28;580.97;;;11.90;99.90;;;;;;5096566;28;20113;-78
2022/12/01 03:57:57;;;;;;;1999.90;999.90;;;12.00;99.90;;;;;;5096856;28;20047;-78
2022/12/01 04:00:23;;;;;;;1999.90;999.90;;;11.90;99.90;;;;;;5113974;28;20486;-78
2022/12/01 04:02:57;;;;;;;1999.90;436.98;;;12.00;99.90;;;;;;5115050;28;20039;-78
2022/12/01 04:05:23;;;;;;;1999.90;677.90;;;12.00;99.90;;;;;;5115173;28;20047;-78
2022/12/01 04:07:49;;;;;;;1999.90;999.90;;;12.30;99.90;;;;;;5096290;28;20036;-78
2022/12/01 04:10:15;;;;;;;1999.90;999.90;;;12.40;99.90;;;;;;5113812;28;20131;-78
2022/12/01 04:12:40;;;;;;;1999.90;999.90;;;11.90;99.90;;;;;;5113298;28;20046;-79
2022/12/01 04:15:11;;;;;;;1999.90;999.90;;;11.90;99.90;;;;;;5115107;28;20048;-79
2022/12/01 04:17:43;;;;;;;1999.90;999.90;;;11.90;99.90;;;;;;5114520;28;20104;-79
2022/12/01 04:20:13;;;;;;;848.75;301.92;;;12.00;99.90;;;;;;5114608;28;20047;-78
2022/12/01 04:22:39;;;;;;;1999.90;999.90;;;12.00;99.90;;;;;;5113961;28;20502;-78
2022/12/01 04:25:06;;;;;;;1852.65;307.83;;;12.40;99.90;;;;;;5096714;28;20326;-78
2022/12/01 04:27:33;;;;;;;1999.90;999.90;;;12.00;99.90;;;;;;5114643;28;20100;-78
2022/12/01 04:29:59;;;;;;;1999.90;999.90;;;12.00;99.90;;;;;;5095561;28;20054;-78
2022/12/01 04:32:25;;;;;;;1999.90;999.90;;;12.00;99.90;;;;;;5114173;28;20043;-78
2022/12/01 04:34:51;;;;;;;1999.90;999.90;;;12.50;99.90;;;;;;5113958;28;20108;-78
2022/12/01 04:37:17;;;;;;;1999.90;999.90;;;11.90;99.90;;;;;;5113571;28;20047;-78
2022/12/01 04:39:42;;;;;;;1999.90;999.90;;;11.90;99.90;;;;;;5078854;28;20039;-78
2022/12/01 04:42:09;;;;;;;1999.90;999.90;;;12.00;99.90;;;;;;5113374;28;20566;-77
2022/12/01 04:44:35;;;;;;;1999.90;999.90;;;11.90;99.90;;;;;;5114557;28;20067;-78
2022/12/01 04:47:05;;;;;;;1726.35;793.53;;;12.00;99.90;;;;;;5113465;28;20507;-78
2022/12/01 04:49:31;;;;;;;1999.90;721.90;;;12.30;99.90;;;;;;5095882;28;20486;-78
2022/12/01 04:51:57;;;;;;;1999.90;999.90;;;12.00;99.90;;;;;;5113838;28;20085;-78
2022/12/01 04:54:23;;;;;;;1999.90;999.90;;;12.00;99.90;;;;;;5113965;28;20074;-78
2022/12/01 04:56:49;;;;;;;1999.90;999.90;;;11.90;99.90;;;;;;5111936;28;20047;-79
2022/12/01 04:59:15;;;;;;;1903.60;468.75;;;12.60;99.90;;;;;;5113447;28;20116;-78
2022/12/01 05:01:41;;;;;;;1536.95;248.93;;;12.00;99.90;;;;;;5095144;28;20044;-78
2022/12/01 05:04:10;;;;;;;1999.90;468.60;;;12.00;99.90;;;;;;5112029;28;20051;-77
2022/12/01 05:06:36;;;;;;;1999.90;999.90;;;12.50;99.90;;;;;;5113619;28;20090;-78
2022/12/01 05:09:02;;;;;;;1999.90;999.90;;;11.90;99.90;;;;;;5113353;28;20044;-78
2022/12/01 05:11:29;;;;;;;1999.90;999.90;;;11.90;99.90;;;;;;5113318;28;20044;-78
2022/12/01 05:13:55;;;;;;;1999.90;999.90;;;11.90;99.90;;;;;;5094985;28;20104;-78
2022/12/01 05:16:24;;;;;;;1999.90;999.90;;;11.80;99.90;;;;;;5113945;28;20047;-78
2022/12/01 05:20:55;;;;;;;1746.25;795.92;;;11.80;99.90;;;;;;5113066;28;20126;-78
2022/12/01 05:21:39;;;;;;;1999.90;999.90;;;11.90;99.90;;;;;;5113110;28;20047;-77
2022/12/01 05:24:06;;;;;;;1999.90;429.23;;;12.00;99.90;;;;;;5112444;28;20047;-78
2022/12/01 05:26:32;;;;;;;1999.90;712.72;;;12.00;99.90;;;;;;5113603;28;20051;-78
2022/12/01 05:28:57;;;;;;;1999.90;999.90;;;12.00;99.90;;;;;;5112825;28;20044;-78
2022/12/01 05:31:23;;;;;;;1999.90;999.90;;;11.90;99.90;;;;;;5113138;28;20044;-78
2022/12/01 05:33:49;;;;;;;1999.90;999.90;;;12.00;99.90;;;;;;5112272;28;20036;-79
2022/12/01 05:36:14;;;;;;;1999.90;999.90;;;11.80;99.90;;;;;;5113129;28;20387;-79
2022/12/01 05:38:40;;;;;;;1999.90;999.90;;;11.90;99.90;;;;;;5110411;28;20379;-81
2022/12/01 05:41:06;;;;;;;1999.90;999.90;;;11.90;99.90;;;;;;5111276;28;20040;-78
2022/12/01 05:43:31;;;;;;;1999.90;999.90;;;11.80;99.90;;;;;;5112526;28;20043;-77
2022/12/01 05:45:57;;;;;;;1999.90;999.90;;;12.00;99.90;;;;;;5113036;28;20112;-77
2022/12/01 05:48:24;;;;;;;1999.90;999.90;;;11.90;99.90;;;;;;5112904;28;20040;-77
2022/12/01 05:50:50;;;;;;;1999.90;720.25;;;11.80;99.90;;;;;;5113095;28;20153;-76
2022/12/01 05:53:17;;;;;;;1999.90;999.90;;;11.90;99.90;;;;;;5076196;28;20047;-77
2022/12/01 05:55:43;;;;;;;1999.90;999.90;;;12.00;99.90;;;;;;5094552;28;20105;-80
2022/12/01 05:58:09;;;;;;;1999.90;999.90;;;11.80;99.90;;;;;;5111671;28;20494;-77
2022/12/01 06:00:36;;;;;;;1999.90;999.90;;;11.90;99.90;;;;;;5094726;28;20433;-77
2022/12/01 06:03:01;;;;;;;1999.90;999.90;;;11.90;99.90;;;;;;5093789;28;20048;-77
2022/12/01 06:05:27;;;;;;;1907.85;467.67;;;11.90;99.90;;;;;;5094336;28;20050;-77
2022/12/01 06:07:53;;;;;;;1999.90;585.42;;;11.90;99.90;;;;;;5112640;28;20387;-77
2022/12/01 06:10:19;;;;;;;1999.90;999.90;;;11.70;99.90;;;;;;5077729;28;20045;-77
2022/12/01 06:12:45;;;;;;;1999.90;999.90;;;11.70;99.90;;;;;;5111936;28;20043;-77
2022/12/01 06:15:11;;;;;;;1999.90;999.90;;;12.30;99.90;;;;;;5093719;28;20039;-77
2022/12/01 06:17:37;;;;;;;1999.90;999.90;;;11.60;99.90;;;;;;5112477;28;20047;-77
2022/12/01 06:20:03;;;;;;;1778.07;269.20;;;11.70;99.90;;;;;;5112091;28;20508;-77
2022/12/01 06:22:29;;;;;;;1999.90;999.90;;;11.40;99.90;;;;;;5110348;28;20060;-77
2022/12/01 06:24:55;;;;;;;1999.90;999.90;;;11.20;99.90;;;;;;5110134;28;20057;-77
2022/12/01 06:27:21;;;;;;;1978.63;315.00;;;11.00;99.90;;;;;;5112077;28;20043;-77
2022/12/01 06:29:48;;;;;;;1999.90;999.90;;;11.10;99.90;;;;;;5111693;28;20048;-77
2022/12/01 06:32:14;;;;;;;1999.90;999.90;;;10.90;99.90;;;;;;5110783;28;20079;-77
2022/12/01 06:34:39;;;;;;;1999.90;521.47;;;11.40;99.90;;;;;;5110996;28;20065;-77
2022/12/01 06:37:05;;;;;;;1999.90;556.97;;;10.90;99.90;;;;;;5110212;28;20543;-77
2022/12/01 06:39:31;;;;;;;1999.90;999.90;;;10.70;99.90;;;;;;5110296;28;20047;-77
2022/12/01 06:41:56;;;;;;;1709.00;782.40;;;11.10;99.90;;;;;;5076583;28;20047;-77
2022/12/01 06:44:22;;;;;;;1999.90;566.35;;;11.90;99.90;;;;;;5094351;28;20079;-77
2022/12/01 06:46:51;;;;;;;1999.90;999.90;;;10.70;99.90;;;;;;5110018;28;20104;-77
2022/12/01 06:49:18;;;;;;;1999.90;999.90;;;11.50;99.90;;;;;;5093821;28;20395;-77
2022/12/01 06:51:45;;;;;;;1999.90;999.90;;;11.00;99.90;;;;;;5111845;28;20046;-77
2022/12/01 06:54:11;;;;;;;1999.90;999.90;;;11.00;99.90;;;;;;5093773;28;20040;-77
2022/12/01 06:56:37;;;;;;;1999.90;999.90;;;11.00;99.90;;;;;;5112271;28;20048;-77
2022/12/01 06:59:03;;;;;;;1928.70;647.28;;;11.20;99.90;;;;;;5110504;28;20043;-77
2022/12/01 07:01:29;;;;;;;1999.90;999.90;;;11.20;99.90;;;;;;5093938;28;20083;-77
2022/12/01 07:03:54;;;;;;;1999.90;999.90;;;11.20;99.90;;;;;;5109845;28;20075;-77
2022/12/01 07:06:20;;;;;;;1999.90;999.90;;;11.10;99.90;;;;;;5111749;28;20410;-78
2022/12/01 07:08:46;;;;;;;1999.90;999.90;;;11.10;99.90;;;;;;5112001;28;20388;-77
2022/12/01 07:11:14;;;;;;;1999.90;999.90;;;11.30;99.90;;;;;;5097399;28;20090;-76
2022/12/01 07:13:41;;;;;;;1999.90;999.90;;;11.10;99.90;;;;;;5115702;28;20070;-77
2022/12/01 07:16:08;;;;;;;1999.90;999.90;;;11.30;99.90;;;;;;5115154;28;20047;-76
2022/12/01 07:18:35;;;;;;;;;;;11.40;99.90;;;;;;5116253;28;20084;-76
2022/12/01 07:21:07;;;;;;;1999.90;577.45;;;12.70;99.90;;;;;;5114247;28;20335;-76
2022/12/01 07:23:34;;;;;;;1999.90;999.90;;;11.20;99.90;;;;;;5114853;28;20388;-78
2022/12/01 07:26:01;;;;;;;1999.90;999.90;;;12.00;99.90;;;;;;5114560;28;20550;-77
2022/12/01 07:28:27;;;;;;;1501.15;568.63;;;11.50;99.90;;;;;;5115957;28;20067;-76
2022/12/01 07:30:59;;;;;;;1999.90;999.90;;;11.40;99.90;;;;;;5114380;28;20032;-76
2022/12/01 07:33:24;;;;;;;1999.90;999.90;;;11.70;99.90;;;;;;5097654;28;20134;-78
2022/12/01 07:35:52;;;;;;;1999.90;999.90;;;11.50;99.90;;;;;;5096391;28;20127;-79
2022/12/01 07:38:18;;;;;;;1999.90;999.90;;;11.50;99.90;;;;;;5114757;28;20051;-76
2022/12/01 07:40:43;;;;;;;1999.90;999.90;;;12.50;99.90;;;;;;5113976;28;20127;-76
2022/12/01 07:43:09;;;;;;;1999.90;999.90;;;10.50;99.90;;;;;;5115152;28;20078;-76
2022/12/01 07:45:35;;;;;;;1999.90;999.90;;;11.50;99.90;;;;;;5114143;28;20058;-76
2022/12/01 07:48:00;;;;;;;1999.90;674.22;;;11.60;99.90;;;;;;5115237;28;20092;-76
2022/12/01 07:50:26;;;;;;;1501.50;268.55;;;11.70;99.90;;;;;;5097012;28;20408;-76
2022/12/01 07:52:52;;;;;;;1999.90;999.90;;;11.60;99.90;;;;;;5115323;28;20126;-79
2022/12/01 07:55:17;;;;;;;1999.90;999.90;;;11.50;99.90;;;;;;5114747;28;20047;-76
2022/12/01 07:57:43;;;;;;;1999.90;999.90;;;11.40;99.90;;;;;;5115079;28;20054;-76
2022/12/01 08:00:10;;;;;;;1999.90;573.33;;;11.30;99.90;;;;;;5096594;28;20092;-77
2022/12/01 08:02:35;;;;;;;1999.90;999.90;;;11.40;99.90;;;;;;5096765;28;20119;-76
2022/12/01 08:05:01;;;;;;;1999.90;999.90;;;11.30;99.90;;;;;;5096127;28;20515;-77
2022/12/01 08:07:27;;;;;;;1944.03;815.58;;;11.10;99.90;;;;;;5115064;28;20446;-77
2022/12/01 08:09:52;;;;;;;1999.90;999.90;;;10.30;99.90;;;;;;5114942;28;20420;-77
2022/12/01 08:12:18;;;;;;;1999.90;999.90;;;10.80;99.90;;;;;;5114430;28;20506;-77
2022/12/01 08:14:44;;;;;;;1999.90;590.92;;;10.90;99.90;;;;;;5115253;28;20498;-77
2022/12/01 08:17:09;;;;;;;1999.90;999.90;;;10.70;99.90;;;;;;5114157;28;20051;-77
2022/12/01 08:19:35;;;;;;;1999.90;999.90;;;10.70;99.90;;;;;;5114001;28;20128;-77
2022/12/01 08:22:01;;;;;;;1999.90;999.90;;;10.60;99.90;;;;;;5112967;28;20036;-77
2022/12/01 08:24:26;;;;;;;1999.90;999.90;;;10.60;99.90;;;;;;5112993;28;20094;-77
2022/12/01 08:26:52;;;;;;;1999.90;999.90;;;10.20;99.90;;;;;;5114421;28;20044;-77
2022/12/01 08:29:18;;;;;;;1635.13;770.15;;;10.50;99.90;;;;;;5113211;28;20388;-77
2022/12/01 08:31:43;;;;;;;1999.90;999.90;;;10.40;99.90;;;;;;5115006;28;20044;-77
2022/12/01 08:34:09;;;;;;;1999.90;999.90;;;10.60;99.90;;;;;;5096119;28;20130;-77
2022/12/01 08:36:35;;;;;;;1691.90;780.00;;;10.80;99.90;;;;;;5114420;28;20043;-77
2022/12/01 08:39:01;;;;;;;1244.05;534.35;;;11.80;99.90;;;;;;5112899;28;20096;-77
2022/12/01 08:41:27;;;;;;;1999.90;999.90;;;10.40;99.90;;;;;;5114533;28;20039;-77
2022/12/01 08:43:53;;;;;;;1999.90;999.90;;;10.40;99.90;;;;;;5114418;28;20048;-77
2022/12/01 08:46:19;;;;;;;1600.80;764.22;;;11.90;99.90;;;;;;5113984;28;20040;-78
2022/12/01 08:48:45;;;;;;;1999.90;999.90;;;10.40;99.90;;;;;;5114119;28;20079;-77
2022/12/01 08:51:17;;;;;;;1999.90;999.90;;;10.70;99.90;;;;;;5096020;28;20138;-77
2022/12/01 08:53:45;;;;;;;1999.90;999.90;;;12.40;99.90;;;;;;5096072;28;20490;-77
2022/12/01 08:56:12;;;;;;;;;;;10.80;99.90;;;;;;5096143;28;20483;-77
2022/12/01 08:58:38;;;;;;;1999.90;999.90;;;10.70;99.90;;;;;;5094279;28;19968;-77
2022/12/01 09:01:09;;;;;;;1999.90;999.90;;;9.50;99.90;;;;;;5112056;28;20039;-77
2022/12/01 09:03:36;;;;;;;1999.90;999.90;;;10.70;99.90;;;;;;5114031;28;20046;-77
2022/12/01 09:06:06;;;;;;;1999.90;999.90;;;10.60;99.90;;;;;;5113772;28;20513;-77
2022/12/01 09:08:33;;;;;;;1999.90;999.90;;;10.60;99.90;;;;;;5113334;28;20043;-77
2022/12/01 09:11:01;;;;;;;1999.90;850.35;;;10.70;99.90;;;;;;5113929;28;20372;-77
2022/12/01 09:13:27;;;;;;;1297.18;542.95;;;9.30;99.90;;;;;;5112770;28;20043;-77
2022/12/01 09:16:02;;;;;;;1999.90;999.90;;;10.60;99.90;;;;;;5113964;28;20131;-77
2022/12/01 09:18:28;;;;;;;1999.90;999.90;;;10.70;99.90;;;;;;5095407;28;20167;-77
2022/12/01 09:20:54;;;;;;;1999.90;999.90;;;10.80;99.90;;;;;;5095785;28;20043;-77
2022/12/01 09:23:20;;;;;;;1999.90;999.90;;;10.80;99.90;;;;;;5112901;28;20122;-77
2022/12/01 09:25:47;;;;;;;1999.90;999.90;;;10.90;99.90;;;;;;5113677;28;20054;-77
2022/12/01 09:28:12;;;;;;;1999.90;999.90;;;10.90;99.90;;;;;;5112720;28;20040;-77
2022/12/01 09:30:38;;;;;;;1999.90;999.90;;;10.90;99.90;;;;;;5095495;28;20047;-76
2022/12/01 09:33:04;;;;;;;1999.90;999.90;;;10.90;99.90;;;;;;5095236;28;20051;-76
2022/12/01 09:35:31;;;;;;;1999.90;999.90;;;11.20;99.90;;;;;;5095390;28;20043;-76
2022/12/01 09:37:57;;;;;;;1999.90;999.90;;;11.00;99.90;;;;;;5113257;28;20092;-77
2022/12/01 09:40:30;;;;;;;1999.90;999.90;;;11.10;99.90;;;;;;5112749;28;20122;-77
2022/12/01 09:42:59;;;;;;;1999.90;999.90;;;11.20;99.90;;;;;;5113526;28;20113;-77
2022/12/01 09:45:29;;;;;;;1999.90;999.90;;;11.30;99.90;;;;;;5113035;28;20100;-77
2022/12/01 09:47:58;;;;;;;1999.90;999.90;;;11.40;99.90;;;;;;5113322;28;20047;-76
2022/12/01 09:50:26;;;;;;;1999.90;999.90;;;10.70;99.90;;;;;;5094620;28;20047;-77
2022/12/01 09:53:02;;;;;;;1999.90;999.90;;;11.30;99.90;;;;;;5113055;28;20046;-77
2022/12/01 09:55:30;;;;;;;1999.90;999.90;;;11.40;99.90;;;;;;5078177;28;20127;-77
2022/12/01 09:57:58;;;;;;;1999.90;847.70;;;11.50;99.90;;;;;;5113186;28;20055;-78
2022/12/01 10:00:35;;;;;;;;;;;11.50;99.90;;;;;;5094792;28;20093;-78
2022/12/01 10:03:19;;;;;;;1999.90;999.90;;;11.90;99.90;;;;;;5113035;28;19972;-78
2022/12/01 10:05:58;;;;;;;1999.90;999.90;;;11.90;99.90;;;;;;5094671;28;20437;-78
2022/12/01 10:08:29;;;;;;;1999.90;999.90;;;12.40;99.90;;;;;;5094454;28;20054;-79
2022/12/01 10:11:00;;;;;;;1999.90;999.90;;;12.50;99.90;;;;;;5094878;28;20036;-78
2022/12/01 10:13:27;;;;;;;1999.90;999.90;;;12.90;99.90;;;;;;5112746;28;20044;-78
2022/12/01 10:15:53;;;;;;;1999.90;999.90;;;13.10;99.90;;;;;;5095077;28;20104;-78
2022/12/01 10:18:37;;;;;;;1999.90;999.90;;;13.40;99.90;;;;;;5094688;28;20458;-78
2022/12/01 10:21:29;;;;;;;1999.90;999.90;;;13.10;99.90;;;;;;5094403;28;20048;-78
2022/12/01 10:24:23;;;;;;;1999.90;999.90;;;13.00;99.90;;;;;;5080512;28;20120;-78
2022/12/01 10:27:00;;;;;;;1999.90;999.90;;;12.90;99.90;;;;;;5112656;28;20048;-78
2022/12/01 10:29:31;;;;;;;1999.90;999.90;;;13.00;99.90;;;;;;5112312;28;20056;-78
2022/12/01 10:32:20;;;;;;;1999.90;999.90;;;12.90;99.90;;;;;;5112738;28;20102;-78
2022/12/01 10:34:47;;;;;;;1999.90;999.90;;;13.30;99.90;;;;;;5093926;28;20074;-78
2022/12/01 10:37:20;;;;;;;1999.90;659.17;;;12.70;99.90;;;;;;5112004;28;20130;-78
2022/12/01 10:39:49;;;;;;;1999.90;999.90;;;12.70;99.90;;;;;;5112924;28;20217;-78
2022/12/01 10:42:33;;;;;;;1999.90;836.92;;;12.60;99.90;;;;;;5112317;28;20040;-78
2022/12/01 10:45:02;;;;;;;1999.90;999.90;;;12.50;99.90;;;;;;5115249;28;20517;-78
2022/12/01 10:47:27;;;;;;;1999.90;999.90;;;12.50;99.90;;;;;;5116073;28;20047;-78
2022/12/01 10:49:54;;;;;;;1999.90;999.90;;;12.60;99.90;;;;;;5116314;28;20305;-78
2022/12/01 10:52:40;;;;;;;1999.90;999.90;;;12.50;99.90;;;;;;5116182;28;20043;-78
2022/12/01 10:55:26;;;;;;;1643.70;595.50;;;12.60;99.90;;;;;;5116691;28;20055;-78
2022/12/01 10:57:55;;;;;;;1999.90;999.90;;;12.50;99.90;;;;;;5116389;28;20067;-78
2022/12/01 11:00:32;;;;;;;1999.90;999.90;;;12.60;99.90;;;;;;5116255;28;20055;-78
2022/12/01 11:02:59;;;;;;;1999.90;338.88;;;12.70;99.90;;;;;;5116590;28;20059;-78
2022/12/01 11:05:31;;;;;;;1999.90;657.03;;;12.60;99.90;;;;;;5115936;28;20118;-78
2022/12/01 11:07:58;;;;;;;1999.90;676.65;;;12.70;99.90;;;;;;5116004;28;20446;-78
2022/12/01 11:10:29;;;;;;;1999.90;999.90;;;12.80;99.90;;;;;;5115981;28;20044;-78
2022/12/01 11:13:23;;;;;;;1999.90;999.90;;;12.80;99.90;;;;;;5098148;28;20107;-78
2022/12/01 11:15:52;;;;;;;1764.85;784.72;;;12.80;99.90;;;;;;5116468;28;20131;-78
2022/12/01 11:18:28;;;;;;;1999.90;999.90;;;12.80;99.90;;;;;;5115595;28;20086;-77
2022/12/01 11:21:07;;;;;;;1954.43;810.63;;;12.90;99.90;;;;;;5081247;28;20075;-78
2022/12/01 11:23:43;;;;;;;1999.90;999.90;;;12.80;99.90;;;;;;5080133;28;20051;-78
2022/12/01 11:26:19;;;;;;;1957.63;819.17;;;12.70;99.90;;;;;;5098079;28;20123;-77
2022/12/01 11:28:53;;;;;;;1999.90;702.08;;;12.50;99.90;;;;;;5115574;28;20040;-77
2022/12/01 11:31:21;;;;;;;1839.53;614.00;;;13.00;99.90;;;;;;5115670;28;20054;-78
2022/12/01 11:33:52;;;;;;;1999.90;999.90;;;12.40;99.90;;;;;;5097694;28;20050;-78
2022/12/01 11:36:37;;;;;;;1999.90;999.90;;;12.40;99.90;;;;;;5115568;28;20083;-78
2022/12/01 11:39:03;;;;;;;1999.90;999.90;;;12.40;99.90;;;;;;5115611;28;20057;-78
2022/12/01 11:41:36;;;;;;;1999.90;999.90;;;12.40;99.90;;;;;;5097260;28;20039;-78
2022/12/01 11:44:05;;;;;;;1999.90;850.97;;;12.30;99.90;;;;;;5115649;28;20043;-77
2022/12/01 11:46:37;;;;;;;1999.90;999.90;;;12.40;99.90;;;;;;5096904;28;20131;-78
2022/12/01 11:49:03;;;;;;;1999.90;999.90;;;12.40;99.90;;;;;;5097047;28;20048;-77
2022/12/01 11:51:36;;;;;;;1999.90;999.90;;;12.40;99.90;;;;;;5097048;28;20441;-78
2022/12/01 11:54:21;;;;;;;1999.90;999.90;;;12.50;99.90;;;;;;5114089;28;20048;-78
2022/12/01 11:56:48;;;;;;;1999.90;649.75;;;12.40;99.90;;;;;;5113528;28;20048;-78
2022/12/01 11:59:19;;;;;;;1999.90;826.50;;;12.90;99.90;;;;;;5115171;28;20052;-80
2022/12/01 12:02:18;;;;;;;1999.90;842.42;;;12.50;99.90;;;;;;5115141;28;20031;-78
2022/12/01 12:05:15;;;;;;;1999.90;999.90;;;12.50;99.90;;;;;;5114727;28;20067;-75
2022/12/01 12:08:18;;;;;;;1999.90;999.90;;;12.60;99.90;;;;;;5096760;28;20058;-75
2022/12/01 12:10:50;;;;;;;1999.90;999.90;;;12.60;99.90;;;;;;5096579;28;20047;-76
2022/12/01 12:13:15;;;;;;;1999.90;999.90;;;12.70;99.90;;;;;;5097135;28;20047;-76
2022/12/01 12:15:50;;;;;;;1832.93;442.95;;;13.00;99.90;;;;;;5095760;28;20085;-77